GBXGV / G-BXGV 7700 Squawk Report (25th of March, 2019)

Time Lat Lon Altitude Heading Speed Vertical Rate
2019-03-25 17:17:55 GMT 51.555256 -1.221900 2,200 81 102 0
2019-03-25 17:17:55 GMT 51.555256 -1.221900 2,600 85 101 -60
2019-03-25 17:17:31 GMT 51.553986 -1.239937 2,700 73 94 -120
2019-03-25 17:16:26 GMT 51.549488 -1.286261 2,800 79 93 -120
2019-03-25 17:16:14 GMT 51.548584 -1.294489 2,800 76 92 -120
2019-03-25 17:15:56 GMT 51.546604 -1.306779 2,900 71 88 0
2019-03-25 17:15:45 GMT 51.544853 -1.323450 2,900 82 80 0
2019-03-25 17:15:31 GMT 51.544853 -1.323450 2,900 79 91 0
2019-03-25 17:15:19 GMT 51.544033 -1.331682 2,900 85 89 0
2019-03-25 17:15:09 GMT 51.543427 -1.338798 2,900 77 82 0
2019-03-25 17:14:58 GMT 51.542278 -1.346111 2,900 70 87 0
2019-03-25 17:14:43 GMT 51.540119 -1.355489 2,900 40 83 0
2019-03-25 17:14:18 GMT 51.538094 -1.371791 2,900 90 60 -120
2019-03-25 17:14:07 GMT 51.539188 -1.380102 2,900 221 89 -600
2019-03-25 17:13:13 GMT 51.556770 -1.372289 3,000 221 89 -600
2019-03-25 17:12:59 GMT 51.560551 -1.366674 3,000 218 69 -240
2019-03-25 17:12:49 GMT 51.562832 -1.363496 3,100 213 100 -240
2019-03-25 17:12:39 GMT 51.565510 -1.359997 3,200 178 37 0
2019-03-25 17:12:28 GMT 51.568535 -1.355478 3,200 222 113 0
2019-03-25 17:12:16 GMT 51.572758 -1.349197 3,200 218 81 0
2019-03-25 17:12:05 GMT 51.576729 -1.343917 3,200 231 80 0
2019-03-25 17:11:54 GMT 51.581829 -1.326569 3,200 298 109 180
2019-03-25 17:11:35 GMT 51.581829 -1.326569 3,200 320 53 180
2019-03-25 17:11:21 GMT 51.577499 -1.319691 3,200 316 89 180
2019-03-25 17:11:09 GMT 51.573795 -1.313563 3,200 330 89 0
2019-03-25 17:10:57 GMT 51.570381 -1.307349 3,100 313 90 300
2019-03-25 17:10:46 GMT 51.567261 -1.302497 3,100 288 89 480
2019-03-25 17:10:33 GMT 51.564602 -1.294815 3,100 301 75 600
2019-03-25 17:10:17 GMT 51.561993 -1.286497 3,000 274 110 600
2019-03-25 17:10:06 GMT 51.557053 -1.271640 2,900 304 96 240
2019-03-25 17:09:46 GMT 51.557053 -1.271640 2,700 285 71 180
2019-03-25 17:09:36 GMT 51.555809 -1.266363 2,600 300 90
2019-03-25 17:06:28 GMT 51.506535 -1.158440 1,600 300 90
2019-03-25 17:06:08 GMT 51.502323 -1.146866 1,600 243 48

Making use of Plane Finder data

You are free to use the raw flight data, aircraft information and images provided in this report for your own purposes provided the data is correctly attributed to Plane Finder. We ask that you please credit Plane Finder and link to planefinder.net in close proximity to the content.

Optionally one of the following logos (no smaller then 150x24px) can be used and must link to planefinder.net

Embedding the Plane Finder map

You are welcome to embed the Plane Finder playback map on your website to offer visitors a more interactive experience. We suggest using the following HTML code:

<iframe src="//planefinder.net/data/report/GBXGV-G-BXGV-7700-squawk-2019-03-25/map" width="800" height="600" seamless="seamless"></iframe>

Where our data comes from

Plane Finder has a global network of data feeds and antenna radars that receive data broadcast directly from aircraft. The primary technologies used are ADS-B and MLAT. We also show feeds from the FAA and a FLARM glider feed.

Click here to find out more about the Plane Finder network.

How we collect our data